CCM57EF LFKC-LFMN
Flight info
| Callsign | CCM57EF |
|---|---|
| Flight time | 0h 22m |
| Altitude | 12000 |
| Route | SODRI |
| Aircraft | A320/M-SDE3FGHIRWY/LB1 |
Departure
| Time | 2026-04-23 20:13 |
|---|---|
| Airport | Calvi Sainte Catherine Airport (LFKC) |
Arrival
| Time | 2026-04-23 20:35 |
|---|---|
| Airport | Nice-Côte d'Azur Airport (LFMN) |
| Time | Latitude | Longitude | Altitude | Speed | Heading |
|---|---|---|---|---|---|
| 2026-04-23 19:57 | 42.52470 | 8.79078 | 192 ft | 0 kts | 300° |
| 2026-04-23 20:09 | 42.52473 | 8.79077 | 200 ft | 1 kts | 323° |
| 2026-04-23 20:09 | 42.52488 | 8.79112 | 191 ft | 6 kts | 124° |
| 2026-04-23 20:10 | 42.52470 | 8.79138 | 192 ft | 5 kts | 132° |
| 2026-04-23 20:10 | 42.52439 | 8.79179 | 197 ft | 4 kts | 122° |
| 2026-04-23 20:10 | 42.52436 | 8.79250 | 196 ft | 13 kts | 91° |
| 2026-04-23 20:10 | 42.52378 | 8.79300 | 202 ft | 12 kts | 178° |
| 2026-04-23 20:11 | 42.52299 | 8.79300 | 211 ft | 11 kts | 180° |
| 2026-04-23 20:11 | 42.52218 | 8.79299 | 212 ft | 16 kts | 180° |
| 2026-04-23 20:11 | 42.52101 | 8.79284 | 220 ft | 17 kts | 206° |
| 2026-04-23 20:11 | 42.52056 | 8.79292 | 217 ft | 6 kts | 72° |
| 2026-04-23 20:12 | 42.52115 | 8.79302 | 216 ft | 12 kts | 359° |
| 2026-04-23 20:12 | 42.52285 | 8.79301 | 205 ft | 58 kts | 360° |
| 2026-04-23 20:12 | 42.52972 | 8.79297 | 158 ft | 135 kts | 360° |
| 2026-04-23 20:12 | 42.54067 | 8.79288 | 353 ft | 170 kts | 359° |
| 2026-04-23 20:13 | 42.55259 | 8.79274 | 1128 ft | 170 kts | 360° |
| 2026-04-23 20:13 | 42.56450 | 8.79269 | 1823 ft | 177 kts | 360° |
| 2026-04-23 20:13 | 42.57753 | 8.79135 | 2218 ft | 199 kts | 342° |
| 2026-04-23 20:13 | 42.58853 | 8.77876 | 2612 ft | 224 kts | 298° |
| 2026-04-23 20:14 | 42.59535 | 8.75848 | 3126 ft | 249 kts | 293° |
| 2026-04-23 20:14 | 42.60344 | 8.73699 | 4009 ft | 260 kts | 302° |
| 2026-04-23 20:14 | 42.61396 | 8.71726 | 5087 ft | 264 kts | 308° |
| 2026-04-23 20:14 | 42.62569 | 8.69794 | 6184 ft | 266 kts | 311° |
| 2026-04-23 20:15 | 42.63778 | 8.67870 | 7228 ft | 270 kts | 311° |
| 2026-04-23 20:15 | 42.65008 | 8.65902 | 8195 ft | 276 kts | 312° |
| 2026-04-23 20:15 | 42.66219 | 8.63831 | 9129 ft | 284 kts | 308° |
| 2026-04-23 20:15 | 42.67377 | 8.61624 | 10064 ft | 290 kts | 307° |
| 2026-04-23 20:16 | 42.68538 | 8.59307 | 10701 ft | 308 kts | 307° |
| 2026-04-23 20:16 | 42.69812 | 8.56831 | 11081 ft | 331 kts | 311° |
| 2026-04-23 20:16 | 42.71412 | 8.54453 | 11392 ft | 352 kts | 320° |
| 2026-04-23 20:16 | 42.73403 | 8.52463 | 11616 ft | 369 kts | 335° |
| 2026-04-23 20:17 | 42.75802 | 8.51074 | 12021 ft | 380 kts | 341° |
| 2026-04-23 20:17 | 42.78258 | 8.49728 | 12143 ft | 384 kts | 341° |
| 2026-04-23 20:17 | 42.80767 | 8.48356 | 12161 ft | 391 kts | 341° |
| 2026-04-23 20:17 | 42.83069 | 8.47099 | 12164 ft | 392 kts | 341° |
| 2026-04-23 20:18 | 42.85604 | 8.45723 | 12169 ft | 392 kts | 341° |
| 2026-04-23 20:18 | 42.88142 | 8.44347 | 12169 ft | 393 kts | 341° |
| 2026-04-23 20:18 | 42.90681 | 8.42968 | 12169 ft | 393 kts | 341° |
| 2026-04-23 20:18 | 42.93185 | 8.41607 | 12170 ft | 392 kts | 341° |
| 2026-04-23 20:19 | 42.95580 | 8.39925 | 12176 ft | 388 kts | 327° |
| 2026-04-23 20:19 | 42.97458 | 8.37277 | 12171 ft | 393 kts | 308° |
| 2026-04-23 20:19 | 42.98891 | 8.34085 | 12181 ft | 394 kts | 303° |
| 2026-04-23 20:19 | 43.00283 | 8.30855 | 12179 ft | 394 kts | 303° |
| 2026-04-23 20:20 | 43.01671 | 8.27623 | 12175 ft | 395 kts | 303° |
| 2026-04-23 20:20 | 43.03060 | 8.24388 | 12177 ft | 395 kts | 303° |
| 2026-04-23 20:20 | 43.04446 | 8.21154 | 12172 ft | 395 kts | 303° |
| 2026-04-23 20:20 | 43.05833 | 8.17916 | 12173 ft | 394 kts | 303° |
| 2026-04-23 20:21 | 43.07219 | 8.14679 | 12174 ft | 395 kts | 303° |
| 2026-04-23 20:21 | 43.08605 | 8.11442 | 12177 ft | 394 kts | 303° |
| 2026-04-23 20:21 | 43.09971 | 8.08249 | 12175 ft | 394 kts | 303° |
| 2026-04-23 20:21 | 43.11355 | 8.05012 | 12168 ft | 394 kts | 303° |
| 2026-04-23 20:22 | 43.12739 | 8.01773 | 12180 ft | 394 kts | 303° |
| 2026-04-23 20:22 | 43.14136 | 7.98491 | 12175 ft | 404 kts | 303° |
| 2026-04-23 20:22 | 43.15520 | 7.95119 | 12176 ft | 407 kts | 301° |
| 2026-04-23 20:22 | 43.16872 | 7.91703 | 12175 ft | 408 kts | 301° |
| 2026-04-23 20:23 | 43.18209 | 7.88272 | 12180 ft | 408 kts | 301° |
| 2026-04-23 20:23 | 43.19547 | 7.84832 | 12176 ft | 409 kts | 301° |
| 2026-04-23 20:23 | 43.20865 | 7.81450 | 12171 ft | 403 kts | 301° |
| 2026-04-23 20:23 | 43.22145 | 7.78162 | 12102 ft | 380 kts | 301° |
| 2026-04-23 20:24 | 43.23359 | 7.75052 | 11964 ft | 361 kts | 301° |
| 2026-04-23 20:24 | 43.24520 | 7.72091 | 11853 ft | 344 kts | 301° |
| 2026-04-23 20:24 | 43.25628 | 7.69265 | 11717 ft | 329 kts | 301° |
| 2026-04-23 20:24 | 43.26689 | 7.66564 | 11599 ft | 316 kts | 301° |
| 2026-04-23 20:25 | 43.27713 | 7.63955 | 11456 ft | 304 kts | 301° |
| 2026-04-23 20:25 | 43.28704 | 7.61430 | 11026 ft | 298 kts | 301° |
| 2026-04-23 20:25 | 43.29671 | 7.58975 | 10527 ft | 295 kts | 301° |
| 2026-04-23 20:25 | 43.30642 | 7.56507 | 10037 ft | 292 kts | 301° |
| 2026-04-23 20:26 | 43.31602 | 7.54058 | 9878 ft | 292 kts | 300° |
| 2026-04-23 20:26 | 43.32563 | 7.51597 | 9708 ft | 293 kts | 300° |
| 2026-04-23 20:26 | 43.33530 | 7.49120 | 9124 ft | 295 kts | 300° |
| 2026-04-23 20:26 | 43.34494 | 7.46651 | 8736 ft | 291 kts | 300° |
| 2026-04-23 20:27 | 43.35446 | 7.44214 | 8217 ft | 288 kts | 300° |
| 2026-04-23 20:27 | 43.36391 | 7.41790 | 7640 ft | 287 kts | 299° |
| 2026-04-23 20:27 | 43.37325 | 7.39387 | 7082 ft | 284 kts | 299° |
| 2026-04-23 20:27 | 43.38238 | 7.37035 | 6530 ft | 281 kts | 299° |
| 2026-04-23 20:28 | 43.39152 | 7.34681 | 5967 ft | 278 kts | 299° |
| 2026-04-23 20:28 | 43.40052 | 7.32358 | 5245 ft | 273 kts | 298° |
| 2026-04-23 20:28 | 43.40942 | 7.30055 | 4603 ft | 273 kts | 298° |
| 2026-04-23 20:28 | 43.41804 | 7.27822 | 4514 ft | 254 kts | 298° |
| 2026-04-23 20:29 | 43.42603 | 7.25754 | 4448 ft | 236 kts | 298° |
| 2026-04-23 20:29 | 43.43351 | 7.23821 | 4352 ft | 221 kts | 298° |
| 2026-04-23 20:29 | 43.44055 | 7.22004 | 4267 ft | 211 kts | 299° |
| 2026-04-23 20:29 | 43.44727 | 7.20264 | 4175 ft | 201 kts | 298° |
| 2026-04-23 20:30 | 43.45361 | 7.18624 | 4091 ft | 193 kts | 300° |
| 2026-04-23 20:30 | 43.47342 | 7.16343 | 3821 ft | 191 kts | 345° |
| 2026-04-23 20:30 | 43.48660 | 7.16107 | 3523 ft | 193 kts | 357° |
| 2026-04-23 20:31 | 43.50010 | 7.15987 | 3230 ft | 195 kts | 356° |
| 2026-04-23 20:31 | 43.51374 | 7.15854 | 2943 ft | 198 kts | 356° |
| 2026-04-23 20:31 | 43.52750 | 7.15720 | 2681 ft | 199 kts | 356° |
| 2026-04-23 20:31 | 43.54113 | 7.15587 | 2418 ft | 199 kts | 357° |
| 2026-04-23 20:32 | 43.55485 | 7.15456 | 2183 ft | 195 kts | 356° |
| 2026-04-23 20:32 | 43.56804 | 7.15329 | 1887 ft | 184 kts | 355° |
| 2026-04-23 20:32 | 43.58040 | 7.15214 | 1592 ft | 172 kts | 355° |
| 2026-04-23 20:32 | 43.59186 | 7.15112 | 1341 ft | 157 kts | 355° |
| 2026-04-23 20:33 | 43.60206 | 7.15026 | 1160 ft | 138 kts | 354° |
| 2026-04-23 20:33 | 43.61128 | 7.15127 | 979 ft | 132 kts | 15° |
| 2026-04-23 20:33 | 43.61887 | 7.15811 | 818 ft | 132 kts | 43° |
| 2026-04-23 20:33 | 43.62530 | 7.16709 | 687 ft | 131 kts | 41° |
| 2026-04-23 20:34 | 43.63160 | 7.17590 | 530 ft | 130 kts | 42° |
| 2026-04-23 20:34 | 43.63798 | 7.18474 | 399 ft | 130 kts | 42° |
| 2026-04-23 20:34 | 43.64430 | 7.19362 | 302 ft | 130 kts | 41° |
| 2026-04-23 20:34 | 43.65069 | 7.20240 | 147 ft | 130 kts | 43° |
| 2026-04-23 20:35 | 43.65696 | 7.21105 | 28 ft | 118 kts | 44° |
| 2026-04-23 20:35 | 43.66111 | 7.21679 | 21 ft | 42 kts | 46° |
| 2026-04-23 20:35 | 43.66183 | 7.21760 | 21 ft | 11 kts | 9° |
| 2026-04-23 20:35 | 43.66271 | 7.21673 | 22 ft | 17 kts | 314° |
| 2026-04-23 20:36 | 43.66241 | 7.21537 | 23 ft | 18 kts | 225° |
| 2026-04-23 20:36 | 43.66144 | 7.21406 | 23 ft | 21 kts | 226° |
| 2026-04-23 20:36 | 43.66031 | 7.21254 | 21 ft | 24 kts | 225° |
| 2026-04-23 20:36 | 43.65906 | 7.21078 | 21 ft | 27 kts | 225° |
| 2026-04-23 20:37 | 43.65796 | 7.20903 | 23 ft | 17 kts | 266° |
| 2026-04-23 20:37 | 43.65871 | 7.20824 | 22 ft | 9 kts | 322° |
| 2026-04-23 20:37 | 43.65907 | 7.20755 | 21 ft | 9 kts | 290° |
| 2026-04-23 20:37 | 43.65923 | 7.20695 | 21 ft | 0 kts | 291° |
| 2026-04-23 20:39 | 43.65913 | 7.20686 | 21 ft | 0 kts | 340° |